Accueil
METAR-TAF:

METAR-TAF

Aéroports :

East Hampton Airport

East Hampton, New York, États-Unis

latitude: 40-57-34N, longitude: 072-15-07W, altitude: 17 m

Observation

Le bulletin a été fait il y a 22 minutes, à 19:35 UTC
Vent 5 kt de sud
Température 17°C
Humidité 82%
Pression 1012 hPa
Visibilité: 16.1 km
Nuages épars à une hauteur de 1600 ft
Nuages fragmentés à une hauteur de 2700 ft
Ciel couvert à une hauteur de 3700 ft

METAR: KHTO 121935Z AUTO 18005KT 10SM SCT016 BKN027 OVC037 17/14 A2989 RMK AO2 T01710140

Heure: 15:57 (19:57 UTC)


TAF: absent

Observations et prévisions météorologiques de plus de 4000 aéroports (messages METAR et TAF).

Les stations disponibles sont représentées par des disques jaunes et rouges sur la carte.

Passer la souris dessus pour voir le nom de la station.

Cliquer dessus pour voir les observations et prévisions météorologiques.

Pour changer de carte: cliquez sur les boutons verts avec une croix noire pour zoomer, sur le bouton vert avec un tiret pour effectuer un zoom arrière, ou sur les flèches vertes pour les cartes adjacentes.


METAR-TAF: